Terminal Aerodrome Forecast
Issued by NWS

Home | Current Version | Previous Version | Text Only | Print | Product List | Glossary On
Versions: 1 2 3 4 5 6 7 8 9 10 11 12 13 14 15 16 17 18 19 20 21 22 23
000
FTPQ31 PGUM 202300
TAFPQ
TAF

PTYA 202320Z 2100/2124 08010KT P6SM VCSH FEW016 SCT050 BKN100
      TEMPO 2100/2102 09012G22KT 5SM SHRA SCT014 BKN025
     FM210200 09012G22KT P6SM VCSH FEW016 SCT050 BKN100
     FM210800 08010KT P6SM VCSH FEW016 SCT050 BKN100=

USA.gov is the U.S. government's official web portal to all federal, state and local government web resources and services.